createdAt,value
2023-02-04T00:00:42.365Z,50.30
2023-02-04T00:05:46.275Z,67.10
2023-02-04T00:10:50.368Z,54.60
2023-02-04T00:15:54.194Z,58.60
2023-02-04T00:20:57.926Z,62.87
2023-02-04T00:26:01.777Z,56.77
2023-02-04T00:31:05.923Z,61.23
2023-02-04T00:36:10.472Z,60.60
2023-02-04T00:41:14.659Z,60.30
2023-02-04T00:46:18.377Z,68.17
2023-02-04T00:51:23.171Z,63.47
2023-02-04T00:56:26.905Z,54.37
2023-02-04T01:01:31.729Z,58.00
2023-02-04T01:06:35.570Z,65.23
2023-02-04T01:11:40.408Z,67.47
2023-02-04T01:16:44.393Z,62.80
2023-02-04T01:21:48.502Z,73.23
2023-02-04T01:26:52.492Z,68.97
2023-02-04T01:31:56.477Z,63.80
2023-02-04T01:37:00.786Z,64.33
2023-02-04T01:42:05.141Z,77.90
2023-02-04T01:47:10.863Z,70.73
2023-02-04T01:52:15.654Z,64.50
2023-02-04T01:57:19.812Z,67.23
2023-02-04T02:02:53.862Z,67.60
2023-02-04T02:07:59.780Z,64.50
2023-02-04T02:13:06.125Z,59.28
2023-02-04T02:18:15.358Z,73.53
2023-02-04T02:23:30.674Z,72.30
2023-02-04T02:28:34.415Z,62.30
2023-02-04T02:33:38.548Z,68.27
2023-02-04T02:38:42.961Z,115.10
2023-02-04T02:43:46.837Z,74.27
2023-02-04T02:48:50.650Z,70.40
2023-02-04T02:53:54.558Z,63.13
2023-02-04T02:59:16.612Z,62.53
2023-02-04T03:04:23.092Z,63.30
2023-02-04T03:09:28.977Z,82.75
2023-02-04T03:14:34.202Z,74.65
2023-02-04T03:19:39.766Z,73.87
2023-02-04T03:24:43.902Z,70.50
2023-02-04T03:29:48.411Z,78.10
2023-02-04T03:34:52.340Z,91.37
2023-02-04T03:39:56.096Z,96.43
2023-02-04T03:45:00.312Z,92.90
2023-02-04T03:50:04.512Z,71.07
2023-02-04T03:55:08.503Z,69.40
2023-02-04T04:00:14.380Z,76.97
2023-02-04T04:05:18.286Z,68.72
2023-02-04T04:10:22.358Z,64.23
2023-02-04T04:15:26.251Z,65.83
2023-02-04T04:20:30.709Z,72.47
2023-02-04T04:25:35.677Z,52.20
2023-02-04T04:30:39.696Z,52.97
2023-02-04T04:35:43.684Z,58.33
2023-02-04T04:40:47.599Z,52.23
2023-02-04T04:45:51.638Z,59.50
2023-02-04T04:50:55.419Z,60.30
2023-02-04T04:56:00.303Z,69.77
2023-02-04T05:01:04.395Z,66.23
2023-02-04T05:06:09.853Z,73.27
2023-02-04T05:11:13.792Z,76.67
2023-02-04T05:16:18.920Z,65.53
2023-02-04T05:21:23.108Z,68.17
2023-02-04T05:26:30.498Z,85.80
2023-02-04T05:31:35.166Z,86.83
2023-02-04T05:36:38.850Z,81.97
2023-02-04T05:41:42.743Z,77.47
2023-02-04T05:46:46.642Z,77.63
2023-02-04T05:51:50.630Z,71.60
2023-02-04T05:56:54.775Z,74.17
2023-02-04T06:01:58.540Z,77.40
2023-02-04T06:07:02.537Z,76.57
2023-02-04T06:12:06.499Z,79.10
2023-02-04T06:17:10.567Z,85.20
2023-02-04T06:22:14.802Z,74.67
2023-02-04T06:27:24.292Z,67.10
2023-02-04T06:32:28.104Z,58.33
2023-02-04T06:37:32.092Z,73.90
2023-02-04T06:42:36.002Z,88.77
2023-02-04T06:47:39.865Z,85.67
2023-02-04T06:52:44.489Z,86.13
2023-02-04T06:57:48.257Z,83.93
2023-02-04T07:02:52.495Z,79.87
2023-02-04T07:07:56.350Z,69.40
2023-02-04T07:13:00.270Z,72.83
2023-02-04T07:18:04.532Z,75.43
2023-02-04T07:23:08.504Z,78.22
2023-02-04T07:28:12.534Z,80.90
2023-02-04T07:33:16.218Z,84.93
2023-02-04T07:38:20.107Z,82.68
2023-02-04T07:43:24.797Z,82.47
2023-02-04T07:48:28.661Z,87.60
2023-02-04T07:53:32.785Z,86.13
2023-02-04T07:58:36.582Z,80.32
2023-02-04T08:03:41.862Z,73.78
2023-02-04T08:08:45.904Z,83.50
2023-02-04T08:13:49.697Z,76.05
2023-02-04T08:18:53.577Z,72.75
2023-02-04T08:23:57.609Z,65.20
2023-02-04T08:29:01.584Z,65.50
2023-02-04T08:34:06.953Z,64.47
2023-02-04T08:39:10.962Z,68.70
2023-02-04T08:44:14.862Z,60.10
2023-02-04T08:49:18.598Z,59.95
2023-02-04T08:54:22.749Z,64.95
2023-02-04T08:59:26.613Z,58.45
2023-02-04T09:04:30.518Z,58.05
2023-02-04T09:09:34.438Z,52.90
2023-02-04T09:14:38.344Z,53.78
2023-02-04T09:19:43.076Z,54.83
2023-02-04T09:24:47.036Z,48.80
2023-02-04T09:29:50.999Z,51.40
2023-02-04T09:34:54.883Z,45.55
2023-02-04T09:39:58.651Z,47.97
2023-02-04T09:45:04.272Z,45.38
2023-02-04T09:50:16.283Z,42.40
2023-02-04T09:55:22.977Z,43.17
2023-02-04T10:00:30.253Z,45.90
2023-02-04T10:05:38.042Z,44.17
2023-02-04T10:10:42.372Z,42.58
2023-02-04T10:15:48.740Z,36.70
2023-02-04T10:21:15.406Z,41.45
2023-02-04T10:26:29.517Z,42.83
2023-02-04T10:31:38.988Z,44.00
2023-02-04T10:36:45.993Z,41.85
2023-02-04T10:41:58.481Z,40.40
2023-02-04T10:47:05.044Z,34.08
2023-02-04T10:52:18.970Z,57.67
2023-02-04T10:57:27.410Z,65.28
2023-02-04T11:02:57.739Z,120.78
2023-02-04T11:08:03.651Z,170.45
2023-02-04T11:13:08.237Z,192.77
2023-02-04T11:18:32.482Z,218.75
2023-02-04T11:23:38.256Z,125.70
2023-02-04T11:28:45.342Z,100.60
2023-02-04T11:33:51.155Z,76.22
2023-02-04T11:38:55.014Z,137.95
2023-02-04T11:44:00.894Z,124.07
2023-02-04T11:49:06.189Z,555.70
2023-02-04T11:54:10.137Z,433.87
2023-02-04T11:59:16.010Z,483.60
2023-02-04T12:04:26.456Z,407.37
2023-02-04T12:09:32.980Z,115.97
2023-02-04T12:14:38.808Z,85.87
2023-02-04T12:19:42.719Z,85.53
2023-02-04T12:24:46.660Z,71.40
2023-02-04T12:29:50.810Z,55.37
2023-02-04T12:34:54.820Z,65.20
2023-02-04T12:39:58.642Z,59.17
2023-02-04T12:45:02.543Z,51.33
2023-02-04T12:50:09.274Z,60.20
2023-02-04T12:55:13.184Z,44.00
2023-02-04T13:00:19.010Z,141.57
2023-02-04T13:05:23.289Z,77.53
2023-02-04T13:10:27.027Z,94.33
2023-02-04T13:15:31.342Z,97.47
2023-02-04T13:20:36.638Z,84.80
2023-02-04T13:25:41.107Z,69.77
2023-02-04T13:30:45.218Z,80.37
2023-02-04T13:35:49.112Z,71.03
2023-02-04T13:40:53.114Z,66.90
2023-02-04T13:45:58.424Z,65.07
2023-02-04T13:51:02.484Z,65.87
2023-02-04T13:56:06.230Z,26.37
2023-02-04T14:01:14.148Z,31.53
2023-02-04T14:06:21.218Z,42.17
2023-02-04T14:11:25.104Z,35.72
2023-02-04T14:16:29.215Z,49.90
2023-02-04T14:21:34.820Z,36.80
2023-02-04T14:26:38.579Z,40.87
2023-02-04T14:31:42.523Z,46.57
2023-02-04T14:36:46.329Z,31.30
2023-02-04T14:41:50.269Z,46.07
2023-02-04T14:46:54.406Z,52.83
2023-02-04T14:51:58.698Z,66.37
2023-02-04T14:57:02.723Z,91.17
2023-02-04T15:02:07.721Z,117.83
2023-02-04T15:07:12.844Z,161.30
2023-02-04T15:12:16.760Z,140.07
2023-02-04T15:17:20.826Z,150.27
2023-02-04T15:22:25.187Z,129.17
2023-02-04T15:27:29.028Z,107.63
2023-02-04T15:32:35.834Z,97.60
2023-02-04T15:37:53.945Z,82.15
2023-02-04T15:42:57.800Z,56.63
2023-02-04T15:48:01.756Z,50.27
2023-02-04T15:53:05.852Z,55.63
2023-02-04T15:58:09.677Z,42.23
2023-02-04T16:03:13.493Z,43.27
2023-02-04T16:08:17.302Z,50.33
2023-02-04T16:13:22.691Z,37.50
2023-02-04T16:18:27.375Z,36.90
2023-02-04T16:23:31.363Z,41.53
2023-02-04T16:28:35.269Z,55.03
2023-02-04T16:33:39.081Z,40.93
2023-02-04T16:38:46.032Z,46.00
2023-02-04T16:43:49.780Z,36.90
2023-02-04T16:48:54.563Z,36.90
2023-02-04T16:53:58.295Z,36.00
2023-02-04T16:59:05.272Z,36.77
2023-02-04T17:04:09.066Z,39.00
2023-02-04T17:09:13.873Z,41.20
2023-02-04T17:14:17.884Z,42.00
2023-02-04T17:19:21.881Z,38.70
2023-02-04T17:24:26.115Z,32.70
2023-02-04T17:29:29.911Z,33.50
2023-02-04T17:34:33.876Z,41.90
2023-02-04T17:39:37.685Z,32.33
2023-02-04T17:44:41.637Z,33.60
2023-02-04T17:49:45.594Z,43.13
2023-02-04T17:54:49.320Z,30.97
2023-02-04T17:59:53.344Z,39.40
2023-02-04T18:05:06.651Z,35.00
2023-02-04T18:10:33.147Z,47.07
2023-02-04T18:15:37.297Z,30.73
2023-02-04T18:20:41.915Z,34.07
2023-02-04T18:25:49.288Z,38.03
2023-02-04T18:30:59.674Z,40.17
2023-02-04T18:36:03.795Z,29.77
2023-02-04T18:41:19.655Z,36.10
2023-02-04T18:46:29.563Z,39.50
2023-02-04T18:51:36.513Z,29.00
2023-02-04T18:56:40.327Z,31.67
2023-02-04T19:01:45.756Z,30.63
2023-02-04T19:06:53.018Z,37.47
2023-02-04T19:12:15.635Z,28.93
2023-02-04T19:17:25.205Z,31.40
2023-02-04T19:22:50.320Z,42.50
2023-02-04T19:27:59.454Z,21.50
2023-02-04T19:33:16.602Z,20.67
2023-02-04T19:38:38.630Z,30.30
2023-02-04T19:43:42.369Z,28.63
2023-02-04T19:48:46.466Z,28.70
2023-02-04T19:53:54.979Z,22.80
2023-02-04T19:58:59.816Z,30.17
2023-02-04T20:04:13.824Z,31.27
2023-02-04T20:09:28.174Z,24.50
2023-02-04T20:14:41.131Z,26.67
2023-02-04T20:19:45.893Z,23.07
2023-02-04T20:24:50.878Z,16.87
2023-02-04T20:30:15.769Z,19.33
2023-02-04T20:35:22.923Z,22.07
2023-02-04T20:40:37.313Z,22.10
2023-02-04T20:46:06.265Z,22.80
2023-02-04T20:51:22.200Z,24.37
2023-02-04T20:56:36.276Z,32.43
2023-02-04T21:01:49.438Z,23.87
2023-02-04T21:06:55.809Z,26.17
2023-02-04T21:12:01.221Z,22.90
2023-02-04T21:17:06.190Z,19.50
2023-02-04T21:22:10.008Z,15.25
2023-02-04T21:27:15.506Z,28.90
2023-02-04T21:37:23.202Z,29.20
2023-02-04T21:42:26.945Z,11.63
2023-02-04T21:47:30.814Z,16.27
2023-02-04T21:52:34.917Z,26.70
2023-02-04T21:57:38.953Z,18.93
2023-02-04T22:02:42.946Z,17.40
2023-02-04T22:07:46.905Z,23.30
2023-02-04T22:12:50.797Z,13.53
2023-02-04T22:17:55.719Z,18.13
2023-02-04T22:22:59.482Z,23.00
2023-02-04T22:28:03.711Z,15.93
2023-02-04T22:33:08.111Z,39.10
2023-02-04T22:38:11.960Z,21.33
2023-02-04T22:43:16.457Z,28.07
2023-02-04T22:48:20.135Z,28.17
2023-02-04T22:53:24.041Z,37.43
2023-02-04T22:58:27.819Z,17.67
2023-02-04T23:03:31.759Z,36.37
2023-02-04T23:08:37.168Z,32.70
2023-02-04T23:13:40.914Z,12.50
2023-02-04T23:18:44.851Z,26.10
2023-02-04T23:23:50.101Z,27.97
2023-02-04T23:28:54.093Z,33.10
2023-02-04T23:33:58.047Z,26.90
2023-02-04T23:39:02.031Z,25.27
2023-02-04T23:44:06.022Z,24.23
2023-02-04T23:49:10.972Z,14.07
2023-02-04T23:54:14.898Z,26.60
2023-02-04T23:59:19.468Z,32.30
